Time;durP1;ratioP1;P1;durP2;ratioP2;P2;SDS_P1;SDS_P2;PMS_P1;PMS_P2;Temp;Humidity;BMP_temperature;BMP_pressure;BME280_temperature;BME280_humidity;BME280_pressure;Samples;Min_cycle;Max_cycle;Signal;HPM_P1;HPM_P2
2021/06/19 00:01:33;;;;;;;6.32;3.03;;;20.20;87.70;;;;;;5088405;28;20183;-71
2021/06/19 00:03:59;;;;;;;3.15;2.80;;;20.20;87.70;;;;;;5089598;28;20420;-71
2021/06/19 00:06:25;;;;;;;3.17;3.08;;;20.20;87.90;;;;;;5089531;28;20236;-71
2021/06/19 00:08:50;;;;;;;3.20;3.13;;;20.20;88.00;;;;;;5088094;28;20292;-72
2021/06/19 00:11:16;;;;;;;2.85;2.65;;;20.10;88.30;;;;;;5089840;28;20177;-72
2021/06/19 00:13:42;;;;;;;3.45;3.15;;;20.10;88.30;;;;;;5087710;28;20182;-72
2021/06/19 00:16:08;;;;;;;2.78;2.67;;;20.10;88.20;;;;;;5086311;28;20249;-72
2021/06/19 00:18:34;;;;;;;3.17;3.08;;;20.10;88.20;;;;;;5079630;28;20587;-71
2021/06/19 00:21:00;;;;;;;3.42;3.30;;;20.10;88.40;;;;;;5089731;28;20224;-71
2021/06/19 00:23:26;;;;;;;3.88;3.63;;;20.10;88.90;;;;;;5089211;28;20266;-71
2021/06/19 00:25:51;;;;;;;3.42;3.33;;;20.00;89.10;;;;;;5083095;28;20273;-71
2021/06/19 00:28:17;;;;;;;4.22;3.92;;;20.00;89.10;;;;;;5088524;28;20542;-71
2021/06/19 00:30:43;;;;;;;3.35;3.25;;;20.00;89.30;;;;;;5085759;28;20742;-71
2021/06/19 00:33:09;;;;;;;3.67;3.47;;;20.00;89.40;;;;;;5087093;28;20262;-71
2021/06/19 00:35:35;;;;;;;3.45;3.33;;;20.00;89.50;;;;;;5088924;28;20178;-71
2021/06/19 00:38:01;;;;;;;3.35;3.05;;;20.00;89.50;;;;;;5089479;28;20214;-71
2021/06/19 00:40:27;;;;;;;4.22;3.63;;;19.90;89.60;;;;;;5087017;28;20182;-71
2021/06/19 00:42:56;;;;;;;3.67;3.47;;;19.90;89.70;;;;;;5088266;28;20183;-71
2021/06/19 00:45:23;;;;;;;3.67;3.47;;;19.90;89.80;;;;;;5084899;28;20182;-71
2021/06/19 00:47:49;;;;;;;3.15;3.05;;;19.80;90.20;;;;;;5088172;28;20269;-71
2021/06/19 00:50:14;;;;;;;6.47;3.60;;;19.80;90.20;;;;;;5088463;28;20265;-71
2021/06/19 00:52:40;;;;;;;3.72;3.42;;;19.80;90.00;;;;;;5086728;28;20186;-71
2021/06/19 00:55:07;;;;;;;3.70;3.58;;;19.80;90.00;;;;;;5085228;28;20178;-71
2021/06/19 00:57:33;;;;;;;4.30;4.00;;;19.80;89.90;;;;;;5086212;28;20271;-71
2021/06/19 01:00:00;;;;;;;4.10;3.90;;;19.80;90.10;;;;;;5088369;28;20192;-71
2021/06/19 01:02:26;;;;;;;4.03;3.92;;;19.70;90.30;;;;;;5088673;28;20182;-71
2021/06/19 01:04:52;;;;;;;5.63;4.85;;;19.70;90.40;;;;;;5088261;28;20178;-71
2021/06/19 01:07:18;;;;;;;3.85;3.65;;;19.70;90.40;;;;;;5087090;28;20206;-71
2021/06/19 01:09:44;;;;;;;3.30;3.10;;;19.60;90.70;;;;;;5080435;28;20562;-71
2021/06/19 01:12:10;;;;;;;5.38;3.10;;;19.60;90.60;;;;;;5085583;28;20204;-72
2021/06/19 01:14:36;;;;;;;4.45;4.05;;;19.60;90.40;;;;;;5077530;28;20195;-71
2021/06/19 01:17:02;;;;;;;3.90;3.70;;;19.60;90.60;;;;;;5086994;28;20222;-71
2021/06/19 01:19:28;;;;;;;3.67;3.58;;;19.60;90.70;;;;;;5088413;28;20204;-71
2021/06/19 01:21:55;;;;;;;4.10;3.80;;;19.50;90.60;;;;;;5085499;28;20182;-71
2021/06/19 01:24:23;;;;;;;3.60;3.40;;;19.50;90.40;;;;;;5087480;28;20178;-72
2021/06/19 01:26:50;;;;;;;3.90;3.53;;;19.50;89.90;;;;;;5085758;28;20683;-71
2021/06/19 01:29:16;;;;;;;5.18;3.70;;;19.60;90.10;;;;;;5087811;28;20184;-71
2021/06/19 01:31:42;;;;;;;3.10;2.88;;;19.50;90.30;;;;;;5086961;28;20192;-71
2021/06/19 01:34:08;;;;;;;2.47;2.38;;;19.50;90.10;;;;;;5087040;28;20223;-72
2021/06/19 01:36:34;;;;;;;2.58;2.47;;;19.50;89.90;;;;;;5086298;28;20214;-72
2021/06/19 01:39:00;;;;;;;2.13;2.03;;;19.50;89.90;;;;;;5088240;28;20175;-71
2021/06/19 01:41:28;;;;;;;1.98;1.98;;;19.50;89.60;;;;;;5086743;28;20659;-72
2021/06/19 01:44:10;;;;;;;2.50;2.40;;;19.50;89.50;;;;;;5086508;28;20669;-71
2021/06/19 01:46:40;;;;;;;1.90;1.90;;;19.50;89.20;;;;;;5084378;28;20623;-71
2021/06/19 01:49:06;;;;;;;2.10;2.00;;;19.50;89.20;;;;;;5080918;28;20178;-72
2021/06/19 01:51:32;;;;;;;1.88;1.88;;;19.50;89.50;;;;;;5087505;28;20192;-71
2021/06/19 01:53:58;;;;;;;2.17;2.17;;;19.50;89.40;;;;;;5088985;28;20186;-71
2021/06/19 01:56:24;;;;;;;1.80;1.70;;;19.50;89.50;;;;;;5081735;28;20206;-71
2021/06/19 01:58:51;;;;;;;1.55;1.50;;;19.50;89.50;;;;;;5087737;28;20182;-70
2021/06/19 02:01:17;;;;;;;1.75;1.75;;;19.40;89.70;;;;;;5083906;28;20252;-71
2021/06/19 02:03:44;;;;;;;1.98;1.98;;;19.40;89.50;;;;;;5087586;28;20501;-70
2021/06/19 02:06:10;;;;;;;1.88;1.88;;;19.40;89.60;;;;;;5083931;28;20171;-71
2021/06/19 02:08:37;;;;;;;1.75;1.65;;;19.40;89.70;;;;;;5080436;28;20635;-71
2021/06/19 02:11:05;;;;;;;1.73;1.73;;;19.40;89.90;;;;;;5082308;28;20728;-71
2021/06/19 02:13:31;;;;;;;1.95;1.85;;;19.30;90.00;;;;;;5086423;28;20189;-71
2021/06/19 02:15:57;;;;;;;1.63;1.63;;;19.30;90.50;;;;;;5083454;28;20190;-71
2021/06/19 02:18:24;;;;;;;1.33;1.33;;;19.20;90.90;;;;;;5089874;28;20667;-71
2021/06/19 02:20:53;;;;;;;1.50;1.50;;;19.10;91.10;;;;;;5082529;28;20193;-71
2021/06/19 02:23:23;;;;;;;1.30;1.30;;;19.10;91.40;;;;;;5086897;28;20185;-71
2021/06/19 02:25:53;;;;;;;1.95;0.98;;;19.10;91.10;;;;;;5084550;28;20719;-72
2021/06/19 02:28:24;;;;;;;1.77;1.77;;;19.00;91.50;;;;;;5081752;28;20528;-71
2021/06/19 02:30:54;;;;;;;1.52;1.52;;;19.00;91.90;;;;;;5084107;28;20220;-71
2021/06/19 02:33:20;;;;;;;2.88;1.65;;;18.90;93.20;;;;;;5085184;28;20243;-71
2021/06/19 02:35:47;;;;;;;2.15;1.40;;;18.70;93.40;;;;;;5087164;28;20674;-71
2021/06/19 02:38:14;;;;;;;1.15;1.15;;;18.70;93.00;;;;;;5083549;28;20695;-71
2021/06/19 02:40:42;;;;;;;1.42;1.42;;;18.70;93.10;;;;;;5087260;28;20182;-71
2021/06/19 02:43:08;;;;;;;1.50;1.40;;;18.70;93.10;;;;;;5081577;28;20188;-70
2021/06/19 02:45:34;;;;;;;1.85;1.75;;;18.70;94.50;;;;;;5086777;28;20605;-70
2021/06/19 02:48:00;;;;;;;1.45;1.45;;;18.70;93.90;;;;;;5085900;28;20219;-70
2021/06/19 02:50:30;;;;;;;1.55;1.45;;;18.70;93.60;;;;;;5083993;28;20181;-70
2021/06/19 02:52:57;;;;;;;1.60;1.60;;;18.60;93.90;;;;;;5085355;28;20196;-71
2021/06/19 02:55:32;;;;;;;1.35;1.23;;;18.60;93.30;;;;;;5086457;28;20174;-71
2021/06/19 02:57:59;;;;;;;1.27;1.27;;;18.60;93.10;;;;;;5086710;28;20237;-71
2021/06/19 03:00:25;;;;;;;1.13;1.13;;;18.60;93.00;;;;;;5085535;28;20174;-70
2021/06/19 03:02:51;;;;;;;1.52;1.52;;;18.60;94.20;;;;;;5084681;28;20186;-70
2021/06/19 03:05:23;;;;;;;1.60;1.50;;;18.50;93.70;;;;;;5089247;28;20555;-71
2021/06/19 03:07:50;;;;;;;1.45;1.45;;;18.50;93.90;;;;;;5079026;28;20182;-71
2021/06/19 03:10:18;;;;;;;1.20;1.20;;;18.50;94.30;;;;;;5085308;28;20178;-71
2021/06/19 03:12:44;;;;;;;1.52;1.52;;;18.40;94.20;;;;;;5083464;28;20189;-70
2021/06/19 03:15:11;;;;;;;1.25;1.25;;;18.40;95.70;;;;;;5086657;28;20206;-71
2021/06/19 03:17:37;;;;;;;1.95;1.52;;;18.40;95.10;;;;;;5085248;28;20233;-71
2021/06/19 03:20:08;;;;;;;1.60;1.50;;;18.40;95.30;;;;;;5085706;28;20604;-71
2021/06/19 03:22:44;;;;;;;1.42;1.42;;;18.30;95.40;;;;;;5079170;28;20266;-71
2021/06/19 03:25:14;;;;;;;1.45;1.35;;;18.30;95.30;;;;;;5084810;28;20253;-71
2021/06/19 03:27:39;;;;;;;1.95;1.13;;;18.30;95.10;;;;;;5085043;28;20218;-71
2021/06/19 03:30:06;;;;;;;1.17;1.17;;;18.30;95.50;;;;;;5083413;28;20186;-71
2021/06/19 03:32:32;;;;;;;0.93;0.93;;;18.30;95.00;;;;;;5086740;28;20178;-71
2021/06/19 03:34:57;;;;;;;2.38;0.90;;;18.30;95.10;;;;;;5083519;28;20185;-71
2021/06/19 03:37:23;;;;;;;1.77;1.38;;;18.30;95.50;;;;;;5084505;28;20210;-71
2021/06/19 03:39:49;;;;;;;1.10;1.10;;;18.20;95.20;;;;;;5089009;28;20821;-71
2021/06/19 03:42:14;;;;;;;0.93;0.93;;;18.20;95.70;;;;;;5090115;28;20178;-71
2021/06/19 03:44:40;;;;;;;1.15;1.15;;;18.20;95.20;;;;;;5086655;28;20171;-71
2021/06/19 03:47:05;;;;;;;1.05;1.02;;;18.20;95.40;;;;;;5089746;28;20179;-71
2021/06/19 03:49:31;;;;;;;3.55;1.00;;;18.30;94.90;;;;;;5086631;28;20190;-71
2021/06/19 03:51:57;;;;;;;1.40;1.35;;;18.40;95.20;;;;;;5089116;28;20218;-71
2021/06/19 03:54:22;;;;;;;1.35;1.35;;;18.30;95.00;;;;;;5095384;28;20173;-71
2021/06/19 03:56:48;;;;;;;1.10;1.10;;;18.30;94.90;;;;;;5084930;28;20611;-71
2021/06/19 03:59:14;;;;;;;1.05;1.05;;;18.30;94.70;;;;;;5082649;28;20187;-71
2021/06/19 04:01:39;;;;;;;1.25;1.25;;;18.40;94.60;;;;;;5083978;28;20179;-71
2021/06/19 04:04:05;;;;;;;1.10;1.10;;;18.40;94.70;;;;;;5090008;28;20186;-72
2021/06/19 04:06:31;;;;;;;1.25;1.25;;;18.40;95.30;;;;;;5083439;28;20217;-71
2021/06/19 04:08:56;;;;;;;1.30;1.30;;;18.40;95.30;;;;;;5081623;28;20229;-71
2021/06/19 04:11:22;;;;;;;1.48;1.48;;;18.40;95.20;;;;;;5086091;28;20595;-72
2021/06/19 04:13:48;;;;;;;1.40;1.40;;;18.50;95.50;;;;;;5096546;28;20711;-72
2021/06/19 04:16:13;;;;;;;1.58;1.58;;;18.50;95.30;;;;;;5088537;28;20251;-71
2021/06/19 04:18:40;;;;;;;1.50;1.40;;;18.40;95.60;;;;;;5089459;28;20257;-71
2021/06/19 04:21:06;;;;;;;1.38;1.38;;;18.50;95.50;;;;;;5081272;28;20179;-71
2021/06/19 04:23:32;;;;;;;1.50;1.50;;;18.50;95.40;;;;;;5086992;28;20180;-72
2021/06/19 04:25:58;;;;;;;1.27;1.27;;;18.50;95.60;;;;;;5088142;28;20232;-72
2021/06/19 04:28:24;;;;;;;1.45;1.45;;;18.50;95.80;;;;;;5089402;28;20182;-72
2021/06/19 04:30:50;;;;;;;1.67;1.50;;;18.60;95.50;;;;;;5086079;28;20187;-71
2021/06/19 04:33:16;;;;;;;1.48;1.40;;;18.60;95.80;;;;;;5086860;28;20675;-72
2021/06/19 04:35:42;;;;;;;2.80;2.05;;;18.60;96.10;;;;;;5089140;28;20194;-71
2021/06/19 04:38:07;;;;;;;1.40;1.40;;;18.70;95.90;;;;;;5088292;28;20222;-71
2021/06/19 04:43:05;;;;;;;1.30;1.30;;;18.80;95.50;;;;;;5088214;28;20224;-71
2021/06/19 04:45:31;;;;;;;2.10;1.77;;;18.90;95.40;;;;;;5086481;28;20190;-71
2021/06/19 04:47:58;;;;;;;1.45;1.45;;;19.00;95.40;;;;;;5087665;28;20190;-72
2021/06/19 04:50:24;;;;;;;1.20;1.20;;;19.00;95.00;;;;;;5086287;28;20645;-71
2021/06/19 04:52:50;;;;;;;1.60;1.60;;;19.10;94.80;;;;;;5085116;28;20199;-72
2021/06/19 04:55:18;;;;;;;1.15;1.15;;;19.10;94.60;;;;;;5083272;28;20204;-71
2021/06/19 04:57:47;;;;;;;2.33;1.52;;;19.10;94.40;;;;;;5087964;28;20632;-71
2021/06/19 05:00:13;;;;;;;1.25;1.15;;;19.10;94.50;;;;;;5087797;28;20190;-72
2021/06/19 05:02:39;;;;;;;1.65;1.55;;;19.10;94.20;;;;;;5081870;28;20213;-72
2021/06/19 05:05:06;;;;;;;2.28;1.65;;;19.10;94.20;;;;;;5085865;28;20225;-72
2021/06/19 05:07:36;;;;;;;3.00;1.58;;;19.20;94.20;;;;;;5089463;28;20181;-72
2021/06/19 05:10:07;;;;;;;3.05;1.40;;;19.10;94.70;;;;;;5094123;28;20894;-71
2021/06/19 05:12:34;;;;;;;1.48;1.48;;;19.10;94.50;;;;;;5081175;28;20186;-71
2021/06/19 05:15:01;;;;;;;1.50;1.40;;;19.00;94.80;;;;;;5081500;28;20206;-71
2021/06/19 05:17:30;;;;;;;1.35;1.35;;;19.00;95.50;;;;;;5086687;28;20329;-71
2021/06/19 05:19:57;;;;;;;1.35;1.35;;;19.00;95.70;;;;;;5087489;28;20182;-71
2021/06/19 05:22:23;;;;;;;1.15;1.15;;;19.00;95.50;;;;;;5087130;28;20175;-71
2021/06/19 05:24:50;;;;;;;1.25;1.25;;;19.10;96.20;;;;;;5089830;28;20696;-72
2021/06/19 05:27:16;;;;;;;1.10;1.10;;;19.10;95.70;;;;;;5087471;28;20174;-71
2021/06/19 05:29:42;;;;;;;1.23;1.20;;;19.20;95.30;;;;;;5083310;28;20178;-71
2021/06/19 05:32:08;;;;;;;1.55;1.00;;;19.20;95.20;;;;;;5078544;28;20190;-70
2021/06/19 05:34:34;;;;;;;1.55;1.55;;;19.20;95.10;;;;;;5085975;28;20179;-73
2021/06/19 05:37:01;;;;;;;1.50;1.50;;;19.20;95.20;;;;;;5086844;28;20206;-72
2021/06/19 05:39:27;;;;;;;1.05;1.02;;;19.40;95.40;;;;;;5086594;28;20265;-72
2021/06/19 05:41:52;;;;;;;1.20;1.20;;;19.40;95.30;;;;;;5088014;28;20784;-71
2021/06/19 05:44:18;;;;;;;1.48;1.48;;;19.50;95.30;;;;;;5085101;28;20224;-73
2021/06/19 05:46:44;;;;;;;1.63;1.63;;;19.60;94.40;;;;;;5083430;28;20201;-72
2021/06/19 05:49:10;;;;;;;1.75;1.75;;;19.60;94.00;;;;;;5087146;28;20631;-72
2021/06/19 05:51:36;;;;;;;1.73;1.60;;;19.70;94.00;;;;;;5086985;28;20202;-72
2021/06/19 05:54:03;;;;;;;1.38;1.38;;;19.80;93.80;;;;;;5085908;28;20181;-72
2021/06/19 05:56:30;;;;;;;1.50;1.50;;;19.90;93.50;;;;;;5085416;28;20203;-72
2021/06/19 05:58:55;;;;;;;2.08;1.98;;;20.00;93.50;;;;;;5087049;28;20572;-72
2021/06/19 06:01:21;;;;;;;1.63;1.58;;;20.10;93.30;;;;;;5087624;28;20181;-72
2021/06/19 06:03:48;;;;;;;3.95;1.50;;;20.10;92.50;;;;;;5087013;28;20174;-70
2021/06/19 06:06:15;;;;;;;2.15;1.73;;;20.20;92.50;;;;;;5087438;28;20262;-72
2021/06/19 06:08:41;;;;;;;1.70;1.60;;;20.20;92.90;;;;;;5086478;28;20208;-73
2021/06/19 06:11:07;;;;;;;2.13;1.90;;;20.30;92.50;;;;;;5086084;28;20178;-72
2021/06/19 06:13:32;;;;;;;1.65;1.65;;;20.30;92.40;;;;;;5086141;28;20217;-72
2021/06/19 06:15:58;;;;;;;1.70;1.65;;;20.40;92.40;;;;;;5087314;28;20206;-72
2021/06/19 06:18:24;;;;;;;1.88;1.77;;;20.50;92.40;;;;;;5087282;28;20221;-73
2021/06/19 06:20:50;;;;;;;1.92;1.92;;;20.50;92.60;;;;;;5085526;28;20214;-72
2021/06/19 06:23:15;;;;;;;2.50;2.30;;;20.50;92.80;;;;;;5080157;28;20197;-71
2021/06/19 06:25:41;;;;;;;3.45;3.15;;;20.60;92.60;;;;;;5086926;28;20182;-73
2021/06/19 06:28:06;;;;;;;3.65;3.55;;;20.60;92.30;;;;;;5087328;28;20189;-73
2021/06/19 06:30:32;;;;;;;3.53;3.22;;;20.50;92.60;;;;;;5084927;28;20186;-73
2021/06/19 06:32:58;;;;;;;2.33;2.28;;;20.40;92.60;;;;;;5086722;28;20739;-72
2021/06/19 06:35:23;;;;;;;2.35;2.17;;;20.30;91.70;;;;;;5079623;28;20725;-72
2021/06/19 06:37:49;;;;;;;2.45;2.25;;;20.20;92.50;;;;;;5082651;28;20703;-73
2021/06/19 06:40:15;;;;;;;2.25;2.15;;;20.10;92.90;;;;;;5081516;28;20591;-72
2021/06/19 06:42:42;;;;;;;3.88;2.83;;;20.00;93.40;;;;;;5082612;28;20186;-73
2021/06/19 06:45:12;;;;;;;3.75;2.90;;;19.90;93.40;;;;;;5091113;28;20182;-72
2021/06/19 06:47:39;;;;;;;2.03;1.92;;;19.80;93.70;;;;;;5087169;28;20202;-72
2021/06/19 06:50:07;;;;;;;2.85;2.50;;;19.60;93.60;;;;;;5084229;28;20189;-76
2021/06/19 06:52:34;;;;;;;2.50;2.30;;;19.50;94.90;;;;;;5085003;28;20182;-72
2021/06/19 06:54:59;;;;;;;2.97;2.67;;;19.50;95.00;;;;;;5087315;28;20720;-73
2021/06/19 06:57:25;;;;;;;2.65;2.38;;;19.40;95.70;;;;;;5094941;28;20206;-73
2021/06/19 06:59:51;;;;;;;3.35;2.70;;;19.40;95.20;;;;;;5095708;28;20186;-72
2021/06/19 07:02:16;;;;;;;2.95;2.50;;;19.50;95.10;;;;;;5093640;28;20182;-72
2021/06/19 07:04:42;;;;;;;2.80;2.70;;;19.60;95.10;;;;;;5092783;28;20195;-72
2021/06/19 07:07:08;;;;;;;2.50;2.47;;;19.70;95.30;;;;;;5092708;28;20178;-73
2021/06/19 07:09:33;;;;;;;3.40;3.10;;;19.90;95.60;;;;;;5093532;28;20229;-72
2021/06/19 07:11:59;;;;;;;7.50;2.90;;;20.10;95.20;;;;;;5096680;28;20187;-73
2021/06/19 07:14:25;;;;;;;3.10;2.80;;;20.20;94.40;;;;;;5098653;28;20180;-73
2021/06/19 07:16:51;;;;;;;2.72;2.63;;;20.30;94.60;;;;;;5092552;28;20229;-73
2021/06/19 07:19:16;;;;;;;2.67;2.47;;;20.30;93.30;;;;;;5093518;28;20243;-72
2021/06/19 07:21:42;;;;;;;2.95;2.80;;;20.40;93.40;;;;;;5094408;28;20182;-72
2021/06/19 07:24:08;;;;;;;2.95;2.70;;;20.50;93.50;;;;;;5096296;28;20309;-72
2021/06/19 07:26:33;;;;;;;4.20;2.58;;;20.50;93.60;;;;;;5090565;28;20265;-72
2021/06/19 07:28:59;;;;;;;2.60;2.50;;;20.60;93.50;;;;;;5088456;28;20232;-71
2021/06/19 07:31:26;;;;;;;3.28;3.10;;;20.70;93.10;;;;;;5084096;28;20519;-72
2021/06/19 07:33:52;;;;;;;3.88;3.58;;;20.80;92.90;;;;;;5081750;28;20214;-72
2021/06/19 07:36:17;;;;;;;3.60;3.30;;;20.90;93.70;;;;;;5085877;28;21064;-71
2021/06/19 07:38:43;;;;;;;3.45;3.15;;;20.90;93.20;;;;;;5090124;28;20182;-73
2021/06/19 07:41:09;;;;;;;2.83;2.72;;;21.00;93.80;;;;;;5085408;28;20203;-73
2021/06/19 07:43:35;;;;;;;2.90;2.55;;;21.20;92.70;;;;;;5089871;28;20645;-73
2021/06/19 07:46:01;;;;;;;4.90;2.72;;;21.30;93.10;;;;;;5090667;28;20182;-75
2021/06/19 07:48:27;;;;;;;3.00;2.90;;;21.40;91.00;;;;;;5088639;28;20189;-74
2021/06/19 07:50:53;;;;;;;3.15;2.90;;;21.50;90.80;;;;;;5090221;28;20178;-73
2021/06/19 07:53:20;;;;;;;3.63;3.33;;;21.60;89.80;;;;;;5088325;28;20182;-73
2021/06/19 07:55:45;;;;;;;3.13;3.03;;;21.60;90.70;;;;;;5093049;28;20202;-72
2021/06/19 07:58:11;;;;;;;2.58;2.47;;;21.60;89.70;;;;;;5085073;28;20257;-72
2021/06/19 08:00:37;;;;;;;2.80;2.70;;;21.60;89.40;;;;;;5098476;28;20213;-73
2021/06/19 08:03:03;;;;;;;2.30;2.20;;;21.70;89.60;;;;;;5095516;28;20733;-72
2021/06/19 08:05:29;;;;;;;2.80;2.60;;;21.70;89.20;;;;;;5083184;28;20194;-73
2021/06/19 08:07:55;;;;;;;3.42;2.55;;;21.80;89.40;;;;;;5078828;28;20182;-75
2021/06/19 08:10:21;;;;;;;2.78;2.63;;;22.00;90.10;;;;;;5076248;28;20179;-73
2021/06/19 08:12:49;;;;;;;2.60;2.50;;;22.20;88.20;;;;;;5078396;28;20950;-74
2021/06/19 08:15:15;;;;;;;2.67;2.67;;;22.30;87.60;;;;;;5086771;28;20194;-73
2021/06/19 08:17:41;;;;;;;2.92;2.83;;;22.40;87.40;;;;;;5089242;28;20211;-73
2021/06/19 08:20:07;;;;;;;2.90;2.40;;;22.50;87.80;;;;;;5089673;28;20178;-74
2021/06/19 08:22:33;;;;;;;2.38;2.30;;;22.70;87.70;;;;;;5088709;28;20190;-74
2021/06/19 08:25:00;;;;;;;3.45;2.30;;;22.80;87.30;;;;;;5087884;28;20773;-72
2021/06/19 08:27:26;;;;;;;2.45;2.22;;;23.00;85.40;;;;;;5087074;28;20198;-72
2021/06/19 08:29:55;;;;;;;2.50;2.45;;;23.30;85.00;;;;;;5087272;28;20279;-73
2021/06/19 08:32:21;;;;;;;5.07;2.90;;;23.40;84.40;;;;;;5084812;28;20187;-72
2021/06/19 08:34:47;;;;;;;3.33;3.10;;;23.60;84.00;;;;;;5088235;28;20770;-72
2021/06/19 08:37:14;;;;;;;4.70;2.35;;;23.80;83.40;;;;;;5088038;28;20610;-73
2021/06/19 08:39:40;;;;;;;2.45;2.45;;;24.00;84.30;;;;;;5085500;28;20175;-75
2021/06/19 08:42:06;;;;;;;3.08;2.88;;;24.20;82.30;;;;;;5084721;28;20639;-70
2021/06/19 08:44:32;;;;;;;4.00;2.72;;;24.40;82.60;;;;;;5088580;28;20174;-71
2021/06/19 08:46:59;;;;;;;2.22;2.22;;;24.60;82.10;;;;;;5087463;28;20190;-71
2021/06/19 08:49:28;;;;;;;2.40;2.30;;;24.80;82.50;;;;;;5084775;28;20182;-72
2021/06/19 08:51:54;;;;;;;2.80;2.70;;;25.00;81.10;;;;;;5088192;28;20279;-73
2021/06/19 08:54:25;;;;;;;2.45;2.42;;;25.20;81.60;;;;;;5082639;28;20182;-72
2021/06/19 08:56:50;;;;;;;2.30;2.30;;;25.30;80.90;;;;;;5085026;28;20206;-73
2021/06/19 08:59:17;;;;;;;2.83;2.72;;;25.40;80.20;;;;;;5087935;28;20185;-73
2021/06/19 09:01:43;;;;;;;4.18;2.70;;;25.30;79.90;;;;;;5088222;28;20186;-74
2021/06/19 09:04:10;;;;;;;2.90;2.85;;;25.20;79.70;;;;;;5086632;28;20179;-73
2021/06/19 09:06:41;;;;;;;2.08;1.98;;;25.10;80.30;;;;;;5087806;28;20279;-73
2021/06/19 09:09:19;;;;;;;2.72;2.63;;;25.00;80.60;;;;;;5086008;28;20708;-73
2021/06/19 09:11:47;;;;;;;2.70;2.60;;;25.00;80.60;;;;;;5087642;28;20182;-73
2021/06/19 09:14:18;;;;;;;2.50;2.40;;;25.00;81.30;;;;;;5078161;28;20279;-73
2021/06/19 09:16:55;;;;;;;2.50;2.50;;;25.00;82.10;;;;;;5081471;28;20448;-73
2021/06/19 09:19:24;;;;;;;2.35;2.35;;;25.00;81.90;;;;;;5080418;28;20578;-72
2021/06/19 09:22:15;;;;;;;2.20;2.20;;;25.10;79.60;;;;;;5076072;28;20189;-73
2021/06/19 09:24:57;;;;;;;2.67;2.47;;;25.30;78.60;;;;;;5024127;28;20222;-73
2021/06/19 09:27:42;;;;;;;2.15;2.13;;;25.40;79.60;;;;;;5017206;28;20203;-73
2021/06/19 09:30:19;;;;;;;2.90;2.55;;;25.40;77.80;;;;;;5014408;28;20197;-72
2021/06/19 09:32:58;;;;;;;2.58;2.47;;;25.50;78.80;;;;;;5011362;28;20192;-74
2021/06/19 09:35:50;;;;;;;3.03;2.92;;;25.50;79.40;;;;;;5016850;28;20302;-73
2021/06/19 09:38:16;;;;;;;2.45;2.40;;;25.50;77.50;;;;;;5020513;28;20227;-73
2021/06/19 09:40:44;;;;;;;2.53;2.42;;;25.30;76.70;;;;;;5024180;28;20713;-73
2021/06/19 09:43:15;;;;;;;2.60;2.50;;;25.20;77.50;;;;;;5023686;28;20235;-73
2021/06/19 09:46:05;;;;;;;2.50;2.50;;;25.00;78.50;;;;;;5021288;28;20192;-73
2021/06/19 09:48:38;;;;;;;2.45;2.42;;;24.90;78.40;;;;;;5021352;28;20709;-73
2021/06/19 09:51:19;;;;;;;2.08;2.08;;;24.70;79.00;;;;;;5016948;28;20279;-72
2021/06/19 09:54:06;;;;;;;3.53;2.47;;;24.40;80.80;;;;;;5015653;28;20316;-73
2021/06/19 09:56:45;;;;;;;2.47;2.38;;;24.20;82.40;;;;;;5019586;28;20216;-73
2021/06/19 09:59:26;;;;;;;3.00;2.80;;;23.80;83.40;;;;;;5021784;28;20195;-74
2021/06/19 10:01:52;;;;;;;2.90;2.80;;;23.60;84.50;;;;;;5053993;28;20600;-76
2021/06/19 10:04:26;;;;;;;2.15;2.15;;;23.40;85.40;;;;;;5083745;28;20257;-76
2021/06/19 10:06:53;;;;;;;2.90;2.67;;;23.20;85.60;;;;;;5085355;28;20186;-75
2021/06/19 10:09:19;;;;;;;2.40;2.17;;;23.10;86.00;;;;;;5087323;28;20167;-75
2021/06/19 10:11:50;;;;;;;3.20;3.00;;;23.00;86.40;;;;;;5086208;28;20170;-74
2021/06/19 10:14:19;;;;;;;2.65;2.65;;;22.90;87.20;;;;;;5086376;28;20234;-72
2021/06/19 10:16:51;;;;;;;2.42;2.17;;;22.90;87.20;;;;;;5087194;28;20206;-71
2021/06/19 10:19:21;;;;;;;3.05;2.80;;;22.80;86.90;;;;;;5079470;28;20221;-71
2021/06/19 10:21:51;;;;;;;2.65;2.55;;;22.80;87.30;;;;;;5087555;28;20652;-72
2021/06/19 10:24:18;;;;;;;3.05;2.78;;;22.80;87.50;;;;;;5087436;28;20699;-72
2021/06/19 10:26:44;;;;;;;2.75;2.65;;;22.90;87.80;;;;;;5073997;28;20179;-71
2021/06/19 10:29:11;;;;;;;2.72;2.63;;;23.10;87.60;;;;;;5084616;28;20185;-72
2021/06/19 10:31:51;;;;;;;2.58;2.47;;;23.20;86.80;;;;;;5084927;28;20776;-73
2021/06/19 10:34:31;;;;;;;2.75;2.65;;;23.40;86.90;;;;;;5073768;28;20287;-73
2021/06/19 10:37:03;;;;;;;2.90;2.70;;;23.80;88.90;;;;;;5085334;28;20231;-73
2021/06/19 10:39:39;;;;;;;2.15;2.08;;;24.50;86.00;;;;;;5085929;28;20256;-73
2021/06/19 10:42:05;;;;;;;2.42;2.33;;;25.00;84.90;;;;;;5080963;28;20654;-73
2021/06/19 10:44:56;;;;;;;2.10;2.00;;;25.60;83.80;;;;;;5086286;28;20178;-72
2021/06/19 10:47:24;;;;;;;2.25;2.13;;;26.40;80.80;;;;;;5082816;28;20182;-73
2021/06/19 10:49:51;;;;;;;2.08;1.95;;;27.10;76.60;;;;;;5085998;28;20182;-72
2021/06/19 10:52:35;;;;;;;2.35;2.25;;;27.80;75.60;;;;;;5091445;28;20323;-72
2021/06/19 10:55:10;;;;;;;1.90;1.80;;;28.30;72.30;;;;;;5079769;28;20594;-71
2021/06/19 10:57:49;;;;;;;2.50;2.40;;;28.70;71.20;;;;;;5088552;28;20220;-73
2021/06/19 11:00:28;;;;;;;2.30;2.30;;;28.80;71.20;;;;;;5088343;28;20186;-73
2021/06/19 11:02:56;;;;;;;2.03;2.03;;;28.90;71.40;;;;;;5088719;28;20194;-73
2021/06/19 11:05:43;;;;;;;1.85;1.85;;;29.10;69.40;;;;;;5090648;28;20178;-73
2021/06/19 11:08:17;;;;;;;2.10;2.10;;;29.30;68.40;;;;;;5090373;28;20181;-71
2021/06/19 11:10:49;;;;;;;2.20;2.10;;;29.30;69.10;;;;;;5088965;28;20186;-72
2021/06/19 11:13:41;;;;;;;2.13;2.10;;;29.10;70.20;;;;;;5090307;28;20257;-72
2021/06/19 11:16:32;;;;;;;2.50;2.30;;;28.80;69.30;;;;;;5093282;28;20217;-71
2021/06/19 11:18:58;;;;;;;2.30;2.20;;;28.40;70.20;;;;;;5100740;28;20272;-72
2021/06/19 11:21:24;;;;;;;2.45;2.45;;;28.00;72.50;;;;;;5087180;28;20261;-72
2021/06/19 11:24:02;;;;;;;2.45;2.45;;;27.60;72.90;;;;;;5089621;28;20186;-72
2021/06/19 11:26:59;;;;;;;2.67;2.58;;;27.10;73.90;;;;;;5088511;28;20213;-71
2021/06/19 11:29:43;;;;;;;3.03;2.50;;;26.70;75.40;;;;;;5089578;28;20190;-72
2021/06/19 11:32:34;;;;;;;1.98;1.98;;;26.20;76.90;;;;;;5088843;28;20189;-74
2021/06/19 11:35:01;;;;;;;1.83;1.83;;;25.70;78.50;;;;;;5088238;28;20178;-74
2021/06/19 11:37:59;;;;;;;1.48;1.48;;;25.20;79.60;;;;;;5087570;28;20213;-74
2021/06/19 11:40:33;;;;;;;1.27;1.27;;;24.40;80.30;;;;;;5025373;28;20570;-73
2021/06/19 11:42:59;;;;;;;1.20;1.20;;;23.60;81.20;;;;;;5024486;28;20200;-74
2021/06/19 11:45:25;;;;;;;1.20;1.20;;;23.10;82.60;;;;;;5027649;28;20199;-73
2021/06/19 11:48:05;;;;;;;1.15;1.05;;;22.60;84.50;;;;;;5026267;28;20254;-74
2021/06/19 11:50:38;;;;;;;1.08;1.08;;;22.10;85.30;;;;;;5025277;28;20206;-74
2021/06/19 11:53:22;;;;;;;1.00;0.90;;;21.90;86.20;;;;;;5026901;28;20185;-72
2021/06/19 11:55:48;;;;;;;1.10;1.10;;;21.70;86.40;;;;;;5018877;28;20189;-72
2021/06/19 11:58:13;;;;;;;5.85;1.65;;;21.40;86.70;;;;;;5021719;28;20231;-72
2021/06/19 12:00:56;;;;;;;1.35;1.35;;;21.20;87.90;;;;;;5031231;28;20737;-74
2021/06/19 12:03:25;;;;;;;2.17;1.40;;;21.00;88.70;;;;;;5013893;28;20743;-75
2021/06/19 12:05:50;;;;;;;2.75;1.10;;;20.70;88.60;;;;;;5034869;28;20188;-71
2021/06/19 12:08:25;;;;;;;1.05;0.90;;;20.60;88.70;;;;;;5014905;28;20183;-72
2021/06/19 12:10:51;;;;;;;1.38;1.25;;;20.40;89.20;;;;;;5034845;28;20188;-73
2021/06/19 12:13:27;;;;;;;1.15;1.10;;;20.30;90.10;;;;;;5035269;28;20673;-71
2021/06/19 12:15:53;;;;;;;1.40;1.30;;;20.30;90.30;;;;;;5031411;28;20204;-74
2021/06/19 12:18:19;;;;;;;1.30;1.30;;;20.40;90.80;;;;;;5086786;28;20230;-73
2021/06/19 12:20:59;;;;;;;1.33;1.33;;;20.50;90.20;;;;;;5090947;28;20186;-73
2021/06/19 12:23:41;;;;;;;1.40;1.38;;;20.60;89.50;;;;;;5093056;28;20204;-74
2021/06/19 12:26:15;;;;;;;1.08;1.08;;;20.70;89.20;;;;;;5092901;28;20283;-72
2021/06/19 12:28:47;;;;;;;1.45;1.45;;;20.90;89.30;;;;;;5088455;28;20188;-74
2021/06/19 12:31:14;;;;;;;1.20;1.20;;;21.00;89.70;;;;;;5089001;28;20791;-74
2021/06/19 12:33:41;;;;;;;1.20;1.20;;;21.10;88.60;;;;;;5094951;28;20190;-74
2021/06/19 12:36:10;;;;;;;1.50;1.42;;;21.20;88.70;;;;;;5087301;28;20204;-73
2021/06/19 12:38:36;;;;;;;1.75;1.70;;;21.30;87.70;;;;;;5090615;28;20221;-74
2021/06/19 12:41:04;;;;;;;1.75;1.65;;;21.30;88.40;;;;;;5092307;28;20268;-74
2021/06/19 12:43:30;;;;;;;1.60;1.50;;;21.30;88.40;;;;;;5092157;28;20178;-73
2021/06/19 12:45:56;;;;;;;1.77;1.77;;;21.40;88.30;;;;;;5090318;28;20674;-74
2021/06/19 12:48:38;;;;;;;2.45;1.52;;;21.70;89.40;;;;;;5091300;28;20568;-73
2021/06/19 12:51:07;;;;;;;1.85;1.75;;;22.20;87.90;;;;;;5093264;28;20175;-73
2021/06/19 12:53:37;;;;;;;2.40;1.33;;;22.70;86.40;;;;;;5092203;28;20299;-74
2021/06/19 12:56:02;;;;;;;1.58;1.48;;;23.00;85.30;;;;;;5091936;28;20588;-74
2021/06/19 12:58:34;;;;;;;1.42;1.42;;;23.30;84.60;;;;;;5090660;28;20221;-74